Time;durP1;ratioP1;P1;durP2;ratioP2;P2;SDS_P1;SDS_P2;PMS_P1;PMS_P2;Temp;Humidity;BMP_temperature;BMP_pressure;BME280_temperature;BME280_humidity;BME280_pressure;Samples;Min_cycle;Max_cycle;Signal;HPM_P1;HPM_P2
2023/03/28 00:01:11;;;;;;;7.67;2.90;;;;;;;;;;4976312;28;20438;-50
2023/03/28 00:03:39;;;;;;;5.73;2.40;;;;;;;;;;4975786;28;20493;-50
2023/03/28 00:06:08;;;;;;;8.00;2.53;;;;;;;;;;4975855;28;21217;-49
2023/03/28 00:08:35;;;;;;;6.43;2.33;;;;;;;;;;4975603;28;20813;-50
2023/03/28 00:11:02;;;;;;;6.17;2.73;;;;;;;;;;4975602;28;20461;-50
2023/03/28 00:13:28;;;;;;;6.23;2.67;;;;;;;;;;4975604;28;20485;-50
2023/03/28 00:15:54;;;;;;;5.37;2.20;;;;;;;;;;4975429;28;20525;-50
2023/03/28 00:18:20;;;;;;;8.07;2.73;;;;;;;;;;4975389;28;20502;-50
2023/03/28 00:20:48;;;;;;;9.20;2.50;;;;;;;;;;4975399;28;20465;-50
2023/03/28 00:23:14;;;;;;;7.67;2.27;;;;;;;;;;4975591;28;20211;-51
2023/03/28 00:25:40;;;;;;;8.83;2.00;;;;;;;;;;4975367;28;20435;-51
2023/03/28 00:28:06;;;;;;;9.17;2.80;;;;;;;;;;4975076;28;20438;-51
2023/03/28 00:30:32;;;;;;;4.50;2.30;;;;;;;;;;4975200;28;20879;-51
2023/03/28 00:32:58;;;;;;;8.47;2.33;;;;;;;;;;4974985;28;20249;-50
2023/03/28 00:35:24;;;;;;;10.20;2.60;;;;;;;;;;4975093;28;20214;-51
2023/03/28 00:37:57;;;;;;;8.37;2.90;;;;;;;;;;4975125;28;20614;-51
2023/03/28 00:40:24;;;;;;;5.10;2.20;;;;;;;;;;4975138;28;20493;-52
2023/03/28 00:42:50;;;;;;;6.67;2.60;;;;;;;;;;4974889;28;20839;-50
2023/03/28 00:45:20;;;;;;;10.50;2.30;;;;;;;;;;4975072;28;20442;-50
2023/03/28 00:47:50;;;;;;;4.40;2.10;;;;;;;;;;4974903;28;21002;-50
2023/03/28 00:50:21;;;;;;;6.13;2.67;;;;;;;;;;4975144;28;20434;-50
2023/03/28 00:52:49;;;;;;;6.73;2.37;;;;;;;;;;4974815;28;20808;-51
2023/03/28 00:55:20;;;;;;;7.13;2.77;;;;;;;;;;4974964;28;20438;-51
2023/03/28 00:57:47;;;;;;;7.30;2.47;;;;;;;;;;4974556;28;20988;-50
2023/03/28 01:00:15;;;;;;;8.30;2.67;;;;;;;;;;4974618;28;20439;-50
2023/03/28 01:02:49;;;;;;;7.90;2.30;;;;;;;;;;4974647;28;20944;-52
2023/03/28 01:05:16;;;;;;;12.50;2.97;;;;;;;;;;4974778;28;20446;-50
2023/03/28 01:07:44;;;;;;;7.27;2.60;;;;;;;;;;4974684;28;20478;-50
2023/03/28 01:10:11;;;;;;;5.93;2.57;;;;;;;;;;4973833;28;20442;-51
2023/03/28 01:12:38;;;;;;;8.20;2.40;;;;;;;;;;4973724;28;20902;-51
2023/03/28 01:15:05;;;;;;;12.53;2.97;;;;;;;;;;4973740;28;20864;-51
2023/03/28 01:17:31;;;;;;;6.23;2.20;;;;;;;;;;4973701;28;20514;-50
2023/03/28 01:20:03;;;;;;;13.23;2.50;;;;;;;;;;4974026;28;20461;-49
2023/03/28 01:22:40;;;;;;;8.53;2.37;;;;;;;;;;4974604;28;20552;-49
2023/03/28 01:25:13;;;;;;;12.63;2.93;;;;;;;;;;4973655;28;20545;-49
2023/03/28 01:27:44;;;;;;;9.10;2.33;;;;;;;;;;4973566;28;20995;-49
2023/03/28 01:30:37;;;;;;;6.73;2.20;;;;;;;;;;4974278;28;20529;-49
2023/03/28 01:33:24;;;;;;;5.17;2.17;;;;;;;;;;4950149;28;20486;-49
2023/03/28 01:36:00;;;;;;;10.13;2.50;;;;;;;;;;4974014;28;20805;-49
2023/03/28 01:38:30;;;;;;;8.30;2.63;;;;;;;;;;4974044;28;20485;-50
2023/03/28 01:41:02;;;;;;;10.37;2.67;;;;;;;;;;4973960;28;20450;-50
2023/03/28 01:43:32;;;;;;;5.30;2.33;;;;;;;;;;4974252;28;20987;-50
2023/03/28 01:46:00;;;;;;;7.03;2.60;;;;;;;;;;4973778;28;20513;-53
2023/03/28 01:48:31;;;;;;;8.83;2.23;;;;;;;;;;4973837;28;20924;-51
2023/03/28 01:51:02;;;;;;;8.67;2.97;;;;;;;;;;4973896;28;20477;-51
2023/03/28 01:53:31;;;;;;;8.20;2.87;;;;;;;;;;4973978;28;20446;-50
2023/03/28 01:56:00;;;;;;;6.07;2.97;;;;;;;;;;4973724;28;20970;-50
2023/03/28 01:58:29;;;;;;;7.53;2.73;;;;;;;;;;4973573;28;20565;-50
2023/03/28 02:01:03;;;;;;;7.57;2.33;;;;;;;;;;4973571;28;20445;-50
2023/03/28 02:03:31;;;;;;;6.33;2.43;;;;;;;;;;4973825;28;20449;-50
2023/03/28 02:05:58;;;;;;;10.27;3.40;;;;;;;;;;4973616;28;20449;-50
2023/03/28 02:08:25;;;;;;;10.87;3.00;;;;;;;;;;4973453;28;20442;-50
2023/03/28 02:10:54;;;;;;;7.20;2.63;;;;;;;;;;4973376;28;20438;-50
2023/03/28 02:13:21;;;;;;;6.37;2.50;;;;;;;;;;4973388;28;20450;-50
2023/03/28 02:15:49;;;;;;;7.73;2.57;;;;;;;;;;4973188;28;20508;-50
2023/03/28 02:18:19;;;;;;;10.87;2.50;;;;;;;;;;4973647;28;20481;-50
2023/03/28 02:20:49;;;;;;;9.17;2.47;;;;;;;;;;4972923;28;20466;-49
2023/03/28 02:23:17;;;;;;;5.70;2.80;;;;;;;;;;4973012;28;20443;-52
2023/03/28 02:25:43;;;;;;;9.87;3.27;;;;;;;;;;4973241;28;20438;-51
2023/03/28 02:28:11;;;;;;;6.50;2.43;;;;;;;;;;4973029;28;20437;-51
2023/03/28 02:30:38;;;;;;;9.00;2.40;;;;;;;;;;4973002;28;20469;-50
2023/03/28 02:33:07;;;;;;;12.33;3.77;;;;;;;;;;4972651;28;21038;-51
2023/03/28 02:35:39;;;;;;;7.47;2.80;;;;;;;;;;4973053;28;20800;-51
2023/03/28 02:38:09;;;;;;;6.87;2.20;;;;;;;;;;4972809;28;20485;-50
2023/03/28 02:40:39;;;;;;;6.00;2.37;;;;;;;;;;4972936;28;20446;-50
2023/03/28 02:43:19;;;;;;;7.83;2.37;;;;;;;;;;4972825;28;20510;-51
2023/03/28 02:45:58;;;;;;;8.53;2.57;;;;;;;;;;4972807;28;20951;-51
2023/03/28 02:48:30;;;;;;;7.87;2.40;;;;;;;;;;4972847;28;20437;-51
2023/03/28 02:51:03;;;;;;;4.43;2.20;;;;;;;;;;4972845;28;20439;-51
2023/03/28 02:53:32;;;;;;;7.40;2.63;;;;;;;;;;4973145;28;20442;-51
2023/03/28 02:56:00;;;;;;;5.63;2.40;;;;;;;;;;4972634;28;20941;-50
2023/03/28 02:58:33;;;;;;;4.30;2.33;;;;;;;;;;4972779;28;20474;-51
2023/03/28 03:01:01;;;;;;;8.77;2.40;;;;;;;;;;4972854;28;20445;-51
2023/03/28 03:03:27;;;;;;;8.00;2.50;;;;;;;;;;4972931;28;20457;-51
2023/03/28 03:05:53;;;;;;;6.97;3.40;;;;;;;;;;4972494;28;20474;-50
2023/03/28 03:08:19;;;;;;;7.50;3.20;;;;;;;;;;4972572;28;20442;-51
2023/03/28 03:10:45;;;;;;;9.13;2.60;;;;;;;;;;4972605;28;20442;-51
2023/03/28 03:13:11;;;;;;;11.27;2.70;;;;;;;;;;4972516;28;20533;-51
2023/03/28 03:15:40;;;;;;;8.40;2.73;;;;;;;;;;4972502;28;20442;-50
2023/03/28 03:18:06;;;;;;;6.47;2.40;;;;;;;;;;4972388;28;20504;-51
2023/03/28 03:20:32;;;;;;;10.60;3.63;;;;;;;;;;4972568;28;20481;-51
2023/03/28 03:22:58;;;;;;;5.27;2.23;;;;;;;;;;4972597;28;20442;-51
2023/03/28 03:25:25;;;;;;;6.10;2.10;;;;;;;;;;4972442;28;20444;-51
2023/03/28 03:27:51;;;;;;;8.63;2.50;;;;;;;;;;4972301;28;20441;-52
2023/03/28 03:30:17;;;;;;;7.20;2.30;;;;;;;;;;4972449;28;20488;-50
2023/03/28 03:32:45;;;;;;;9.70;2.57;;;;;;;;;;4973246;28;20505;-51
2023/03/28 03:35:11;;;;;;;11.70;3.17;;;;;;;;;;4976399;28;20206;-51
2023/03/28 03:37:37;;;;;;;13.53;2.83;;;;;;;;;;4976162;28;20868;-51
2023/03/28 03:40:04;;;;;;;9.10;2.97;;;;;;;;;;4976207;28;20449;-50
2023/03/28 03:42:30;;;;;;;8.63;2.60;;;;;;;;;;4976307;28;20450;-52
2023/03/28 03:44:56;;;;;;;9.57;2.63;;;;;;;;;;4976167;28;20466;-51
2023/03/28 03:47:22;;;;;;;7.00;3.03;;;;;;;;;;4976076;28;20505;-51
2023/03/28 03:49:50;;;;;;;10.07;2.83;;;;;;;;;;4976012;28;20201;-52
2023/03/28 03:52:16;;;;;;;6.63;2.50;;;;;;;;;;4976099;28;20203;-51
2023/03/28 03:54:42;;;;;;;8.73;2.63;;;;;;;;;;4976103;28;20537;-52
2023/03/28 03:57:08;;;;;;;9.73;2.67;;;;;;;;;;4975719;28;20438;-52
2023/03/28 03:59:35;;;;;;;6.53;2.60;;;;;;;;;;4975901;28;20434;-51
2023/03/28 04:02:01;;;;;;;4.73;2.40;;;;;;;;;;4975929;28;20444;-50
2023/03/28 04:04:27;;;;;;;8.07;2.60;;;;;;;;;;4975851;28;20992;-51
2023/03/28 04:06:57;;;;;;;5.30;2.57;;;;;;;;;;4975643;28;20834;-51
2023/03/28 04:09:25;;;;;;;7.43;2.97;;;;;;;;;;4975885;28;20450;-51
2023/03/28 04:11:51;;;;;;;4.07;2.10;;;;;;;;;;4975570;28;20445;-51
2023/03/28 04:14:17;;;;;;;7.67;2.60;;;;;;;;;;4975663;28;20454;-52
2023/03/28 04:16:43;;;;;;;6.63;2.53;;;;;;;;;;4975723;28;20450;-52
2023/03/28 04:19:12;;;;;;;10.40;2.67;;;;;;;;;;4975458;28;20494;-49
2023/03/28 04:21:41;;;;;;;8.03;2.90;;;;;;;;;;4975510;28;20265;-50
2023/03/28 04:24:08;;;;;;;6.83;2.57;;;;;;;;;;4975335;28;20449;-51
2023/03/28 04:26:36;;;;;;;8.00;2.67;;;;;;;;;;4975310;28;20807;-50
2023/03/28 04:29:03;;;;;;;7.63;2.67;;;;;;;;;;4975311;28;20469;-53
2023/03/28 04:31:34;;;;;;;7.93;2.70;;;;;;;;;;4975417;28;20484;-52
2023/03/28 04:34:00;;;;;;;7.80;2.50;;;;;;;;;;4975210;28;20478;-51
2023/03/28 04:36:28;;;;;;;7.77;2.90;;;;;;;;;;4975333;28;20434;-50
2023/03/28 04:38:57;;;;;;;4.97;2.70;;;;;;;;;;4975011;28;20482;-51
2023/03/28 04:41:24;;;;;;;9.17;2.50;;;;;;;;;;4975211;28;20438;-53
2023/03/28 04:43:50;;;;;;;5.93;2.40;;;;;;;;;;4974603;28;20976;-52
2023/03/28 04:46:16;;;;;;;8.30;2.70;;;;;;;;;;4974681;28;20447;-52
2023/03/28 04:48:42;;;;;;;4.70;2.23;;;;;;;;;;4975049;28;20249;-51
2023/03/28 04:51:08;;;;;;;9.73;2.30;;;;;;;;;;4974953;28;20297;-50
2023/03/28 04:53:35;;;;;;;4.77;2.13;;;;;;;;;;4974913;28;20210;-51
2023/03/28 04:56:01;;;;;;;6.77;2.33;;;;;;;;;;4974856;28;20445;-51
2023/03/28 04:58:28;;;;;;;7.13;2.27;;;;;;;;;;4975062;28;20470;-52
2023/03/28 05:00:54;;;;;;;7.53;2.33;;;;;;;;;;4974701;28;20438;-51
2023/03/28 05:03:21;;;;;;;9.10;2.40;;;;;;;;;;4974820;28;20442;-52
2023/03/28 05:05:48;;;;;;;8.77;2.83;;;;;;;;;;4974870;28;20497;-53
2023/03/28 05:08:15;;;;;;;7.67;2.80;;;;;;;;;;4974932;28;20456;-52
2023/03/28 05:10:42;;;;;;;4.13;2.33;;;;;;;;;;4974756;28;20438;-52
2023/03/28 05:13:08;;;;;;;5.60;2.40;;;;;;;;;;4974660;28;20904;-53
2023/03/28 05:15:35;;;;;;;8.43;2.47;;;;;;;;;;4974481;28;20639;-52
2023/03/28 05:18:01;;;;;;;9.43;2.77;;;;;;;;;;4973922;28;20246;-51
2023/03/28 05:20:27;;;;;;;7.80;3.07;;;;;;;;;;4974177;28;20434;-51
2023/03/28 05:22:53;;;;;;;7.80;3.20;;;;;;;;;;4973639;28;20465;-51
2023/03/28 05:25:20;;;;;;;6.23;2.40;;;;;;;;;;4973843;28;20198;-50
2023/03/28 05:27:46;;;;;;;9.30;2.40;;;;;;;;;;4973797;28;20210;-50
2023/03/28 05:30:13;;;;;;;7.07;2.70;;;;;;;;;;4973808;28;20442;-51
2023/03/28 05:32:40;;;;;;;7.47;2.50;;;;;;;;;;4973318;28;20231;-50
2023/03/28 05:35:08;;;;;;;9.87;2.40;;;;;;;;;;4973648;28;20971;-52
2023/03/28 05:37:35;;;;;;;7.00;2.87;;;;;;;;;;4973526;28;20545;-51
2023/03/28 05:40:01;;;;;;;9.00;2.93;;;;;;;;;;4973603;28;20434;-52
2023/03/28 05:42:27;;;;;;;7.57;2.60;;;;;;;;;;4973629;28;20444;-52
2023/03/28 05:44:53;;;;;;;8.13;3.07;;;;;;;;;;4973479;28;20434;-52
2023/03/28 05:47:19;;;;;;;8.73;3.30;;;;;;;;;;4973479;28;20202;-53
2023/03/28 05:49:47;;;;;;;7.67;2.53;;;;;;;;;;4973244;28;20211;-52
2023/03/28 05:52:13;;;;;;;8.20;2.60;;;;;;;;;;4973587;28;20450;-52
2023/03/28 05:54:39;;;;;;;6.40;2.07;;;;;;;;;;4973353;28;20790;-52
2023/03/28 05:57:05;;;;;;;6.43;2.53;;;;;;;;;;4972165;28;20199;-52
2023/03/28 05:59:31;;;;;;;8.20;2.33;;;;;;;;;;4973356;28;20474;-51
2023/03/28 06:01:58;;;;;;;9.00;2.57;;;;;;;;;;4973301;28;20463;-52
2023/03/28 06:04:24;;;;;;;9.83;2.90;;;;;;;;;;4973328;28;20438;-52
2023/03/28 06:06:52;;;;;;;4.80;2.13;;;;;;;;;;4973160;28;20933;-51
2023/03/28 06:09:18;;;;;;;7.87;2.53;;;;;;;;;;4972966;28;20439;-52
2023/03/28 06:11:44;;;;;;;7.73;3.10;;;;;;;;;;4973171;28;20442;-52
2023/03/28 06:14:10;;;;;;;7.47;2.53;;;;;;;;;;4972940;28;20260;-50
2023/03/28 06:16:37;;;;;;;11.50;2.90;;;;;;;;;;4972953;28;20438;-50
2023/03/28 06:19:03;;;;;;;9.20;2.50;;;;;;;;;;4972524;28;20485;-50
2023/03/28 06:21:29;;;;;;;11.40;2.73;;;;;;;;;;4973158;28;20462;-50
2023/03/28 06:23:56;;;;;;;5.23;2.10;;;;;;;;;;4972823;28;20441;-51
2023/03/28 06:26:22;;;;;;;6.40;2.63;;;;;;;;;;4972719;28;21027;-52
2023/03/28 06:28:48;;;;;;;6.67;2.80;;;;;;;;;;4972747;28;20529;-50
2023/03/28 06:31:14;;;;;;;5.90;2.40;;;;;;;;;;4972640;28;20489;-50
2023/03/28 06:33:40;;;;;;;7.63;2.67;;;;;;;;;;4972598;28;20723;-50
2023/03/28 06:36:06;;;;;;;9.60;2.80;;;;;;;;;;4972483;28;20202;-50
2023/03/28 06:38:33;;;;;;;7.20;2.50;;;;;;;;;;4972478;28;20486;-50
2023/03/28 06:41:00;;;;;;;7.27;2.47;;;;;;;;;;4972598;28;20437;-48
2023/03/28 06:43:26;;;;;;;8.67;3.30;;;;;;;;;;4972713;28;20443;-48
2023/03/28 06:45:52;;;;;;;8.20;2.90;;;;;;;;;;4972392;28;20588;-49
2023/03/28 06:48:18;;;;;;;5.77;2.30;;;;;;;;;;4972382;28;20191;-49
2023/03/28 06:50:50;;;;;;;9.87;2.50;;;;;;;;;;4972544;28;20199;-49
2023/03/28 06:53:16;;;;;;;8.50;2.50;;;;;;;;;;4972491;28;20442;-48
2023/03/28 06:55:42;;;;;;;5.97;2.33;;;;;;;;;;4972227;28;20427;-49
2023/03/28 06:58:10;;;;;;;13.17;3.17;;;;;;;;;;4971968;28;20477;-49
2023/03/28 07:00:36;;;;;;;7.10;2.40;;;;;;;;;;4972248;28;20430;-49
2023/03/28 07:03:02;;;;;;;7.13;2.80;;;;;;;;;;4972087;28;20996;-51
2023/03/28 07:05:29;;;;;;;7.33;2.43;;;;;;;;;;4972470;28;20442;-50
2023/03/28 07:07:54;;;;;;;4.40;2.40;;;;;;;;;;4971797;28;20442;-51
2023/03/28 07:10:20;;;;;;;8.93;2.30;;;;;;;;;;4970728;28;20497;-49
2023/03/28 07:12:47;;;;;;;8.13;2.77;;;;;;;;;;4972345;28;20223;-50
2023/03/28 07:15:14;;;;;;;8.90;2.93;;;;;;;;;;4972104;28;20684;-50
2023/03/28 07:17:40;;;;;;;7.93;2.90;;;;;;;;;;4972076;28;20857;-49
2023/03/28 07:20:07;;;;;;;10.33;2.87;;;;;;;;;;4971944;28;20459;-52
2023/03/28 07:22:32;;;;;;;8.03;2.90;;;;;;;;;;4972184;28;20257;-53
2023/03/28 07:24:59;;;;;;;8.73;2.50;;;;;;;;;;4971856;28;20450;-54
2023/03/28 07:27:25;;;;;;;10.97;2.40;;;;;;;;;;4972075;28;20203;-53
2023/03/28 07:29:51;;;;;;;7.57;2.53;;;;;;;;;;4972047;28;20445;-53
2023/03/28 07:32:18;;;;;;;7.23;1.97;;;;;;;;;;4971934;28;20261;-54
2023/03/28 07:34:44;;;;;;;9.57;2.90;;;;;;;;;;4971910;28;20253;-55
2023/03/28 07:37:10;;;;;;;5.80;2.73;;;;;;;;;;4972132;28;20446;-55
2023/03/28 07:39:42;;;;;;;8.93;3.33;;;;;;;;;;4971849;28;20999;-54
2023/03/28 07:42:09;;;;;;;7.87;3.07;;;;;;;;;;4969821;28;20213;-54
2023/03/28 07:44:35;;;;;;;7.80;2.63;;;;;;;;;;4971537;28;20446;-54
2023/03/28 07:47:01;;;;;;;9.77;2.80;;;;;;;;;;4971318;28;20504;-54
2023/03/28 07:49:29;;;;;;;7.60;3.00;;;;;;;;;;4971762;28;20199;-54
2023/03/28 07:51:55;;;;;;;6.50;2.43;;;;;;;;;;4971408;28;20203;-54
2023/03/28 07:54:21;;;;;;;7.60;2.70;;;;;;;;;;4971622;28;20854;-54
2023/03/28 07:56:48;;;;;;;11.67;2.60;;;;;;;;;;4971664;28;20265;-55
2023/03/28 07:59:14;;;;;;;6.47;2.33;;;;;;;;;;4971746;28;20524;-54
2023/03/28 08:01:40;;;;;;;5.70;2.43;;;;;;;;;;4971883;28;20610;-54
2023/03/28 08:04:06;;;;;;;10.33;2.90;;;;;;;;;;4971808;28;20438;-54
2023/03/28 08:06:37;;;;;;;8.10;2.77;;;;;;;;;;4971865;28;20815;-53
2023/03/28 08:09:03;;;;;;;6.37;2.43;;;;;;;;;;4971690;28;20438;-53
2023/03/28 08:11:29;;;;;;;9.13;2.33;;;;;;;;;;4971977;28;20199;-53
2023/03/28 08:13:55;;;;;;;8.57;2.40;;;;;;;;;;4971724;28;20748;-54
2023/03/28 08:16:21;;;;;;;8.77;2.53;;;;;;;;;;4971796;28;20245;-53
2023/03/28 08:18:47;;;;;;;9.50;2.37;;;;;;;;;;4971608;28;20227;-54
2023/03/28 08:21:13;;;;;;;6.90;2.10;;;;;;;;;;4975140;28;20195;-54
2023/03/28 08:23:40;;;;;;;11.13;3.13;;;;;;;;;;4975232;28;20210;-54
2023/03/28 08:26:07;;;;;;;6.23;2.57;;;;;;;;;;4974644;28;20206;-54
2023/03/28 08:28:33;;;;;;;8.00;2.73;;;;;;;;;;4974856;28;20602;-55
2023/03/28 08:30:59;;;;;;;5.97;2.17;;;;;;;;;;4974747;28;20215;-54
2023/03/28 08:33:25;;;;;;;5.57;2.20;;;;;;;;;;4974795;28;20239;-54
2023/03/28 08:35:52;;;;;;;11.03;2.67;;;;;;;;;;4974789;28;20258;-54
2023/03/28 08:38:18;;;;;;;9.17;2.83;;;;;;;;;;4974639;28;20226;-54
2023/03/28 08:40:48;;;;;;;5.47;2.87;;;;;;;;;;4974900;28;20205;-54
2023/03/28 08:43:22;;;;;;;9.60;2.70;;;;;;;;;;4974845;28;20302;-54
2023/03/28 08:45:51;;;;;;;7.03;2.90;;;;;;;;;;4974689;28;20202;-55
2023/03/28 08:48:19;;;;;;;7.27;2.70;;;;;;;;;;4974596;28;20648;-54
2023/03/28 08:50:47;;;;;;;6.37;2.70;;;;;;;;;;4974729;28;20195;-54
2023/03/28 08:53:16;;;;;;;7.10;2.63;;;;;;;;;;4974638;28;20199;-55
2023/03/28 08:55:42;;;;;;;7.67;2.50;;;;;;;;;;4974665;28;20230;-54
2023/03/28 08:58:13;;;;;;;6.90;2.70;;;;;;;;;;4974357;28;20223;-54
2023/03/28 09:00:39;;;;;;;10.73;2.67;;;;;;;;;;4974391;28;20230;-54
2023/03/28 09:03:10;;;;;;;7.97;2.33;;;;;;;;;;4974319;28;20211;-55
2023/03/28 09:05:41;;;;;;;9.10;2.53;;;;;;;;;;4974419;28;20265;-55
2023/03/28 09:08:22;;;;;;;6.87;2.30;;;;;;;;;;4974199;28;20280;-54
2023/03/28 09:10:50;;;;;;;10.67;2.50;;;;;;;;;;4974242;28;20194;-54
2023/03/28 09:13:24;;;;;;;9.40;2.63;;;;;;;;;;4974182;28;20206;-54
2023/03/28 09:15:55;;;;;;;12.80;2.73;;;;;;;;;;4974228;28;20269;-54
2023/03/28 09:18:30;;;;;;;6.97;2.63;;;;;;;;;;4974133;28;20239;-55
2023/03/28 09:20:59;;;;;;;7.07;2.27;;;;;;;;;;4974206;28;20579;-55
2023/03/28 09:23:36;;;;;;;11.57;2.80;;;;;;;;;;4974150;28;20230;-55
2023/03/28 09:26:05;;;;;;;5.47;2.43;;;;;;;;;;4973801;28;20607;-53
2023/03/28 09:28:37;;;;;;;6.93;2.40;;;;;;;;;;4974073;28;20241;-53
2023/03/28 09:31:05;;;;;;;7.57;2.30;;;;;;;;;;4973423;28;20225;-54
2023/03/28 09:33:34;;;;;;;9.67;2.10;;;;;;;;;;4973680;28;20246;-53
2023/03/28 09:36:01;;;;;;;8.90;2.87;;;;;;;;;;4973799;28;20539;-54
2023/03/28 09:38:30;;;;;;;5.80;2.10;;;;;;;;;;4973541;28;20676;-54
2023/03/28 09:40:57;;;;;;;9.23;2.30;;;;;;;;;;4974020;28;20351;-54
2023/03/28 09:43:27;;;;;;;7.97;2.37;;;;;;;;;;4973868;28;20222;-54
2023/03/28 09:46:01;;;;;;;6.47;2.00;;;;;;;;;;4973798;28;20203;-54
2023/03/28 09:48:28;;;;;;;7.57;2.47;;;;;;;;;;4973909;28;20203;-54
2023/03/28 09:50:56;;;;;;;9.20;2.80;;;;;;;;;;4973505;28;20195;-54
2023/03/28 09:53:24;;;;;;;5.70;2.53;;;;;;;;;;4973516;28;20265;-54
2023/03/28 09:55:51;;;;;;;6.90;2.40;;;;;;;;;;4973605;28;20199;-54
2023/03/28 09:58:17;;;;;;;8.13;2.23;;;;;;;;;;4973367;28;20234;-54
2023/03/28 10:00:45;;;;;;;6.50;2.03;;;;;;;;;;4973662;28;20225;-54
2023/03/28 10:03:21;;;;;;;6.93;2.37;;;;;;;;;;4973361;28;20207;-54
2023/03/28 10:05:48;;;;;;;9.13;3.03;;;;;;;;;;4973469;28;20211;-54
2023/03/28 10:08:21;;;;;;;9.77;2.67;;;;;;;;;;4973022;28;20210;-55
2023/03/28 10:10:55;;;;;;;6.90;2.30;;;;;;;;;;4973167;28;20261;-54
2023/03/28 10:13:22;;;;;;;7.27;2.33;;;;;;;;;;4973222;28;20484;-55
2023/03/28 10:15:49;;;;;;;6.23;2.40;;;;;;;;;;4973246;28;20207;-53
2023/03/28 10:18:16;;;;;;;6.03;2.47;;;;;;;;;;4973174;28;20234;-55
2023/03/28 10:20:42;;;;;;;7.20;2.00;;;;;;;;;;4973261;28;20266;-55
2023/03/28 10:23:11;;;;;;;5.70;2.40;;;;;;;;;;4972889;28;20198;-53
2023/03/28 10:25:39;;;;;;;6.40;2.20;;;;;;;;;;4972913;28;20203;-54
2023/03/28 10:28:06;;;;;;;7.40;2.73;;;;;;;;;;4973038;28;20629;-54
2023/03/28 10:30:33;;;;;;;4.77;2.20;;;;;;;;;;4973089;28;20198;-54
2023/03/28 10:33:09;;;;;;;6.00;1.90;;;;;;;;;;4973009;28;20329;-55
2023/03/28 10:35:40;;;;;;;9.87;2.47;;;;;;;;;;4972995;28;20202;-54
2023/03/28 10:38:14;;;;;;;4.90;2.10;;;;;;;;;;4972820;28;20697;-54
2023/03/28 10:40:40;;;;;;;5.63;2.37;;;;;;;;;;4973076;28;20676;-54
2023/03/28 10:43:11;;;;;;;6.93;2.10;;;;;;;;;;4972257;28;20473;-54
2023/03/28 10:45:37;;;;;;;4.47;2.23;;;;;;;;;;4972907;28;20190;-54
2023/03/28 10:48:09;;;;;;;5.40;2.23;;;;;;;;;;4972812;28;20210;-54
2023/03/28 10:50:40;;;;;;;8.00;2.40;;;;;;;;;;4972759;28;20213;-54
2023/03/28 10:53:13;;;;;;;7.70;2.00;;;;;;;;;;4972804;28;20202;-54
2023/03/28 10:55:42;;;;;;;8.53;2.50;;;;;;;;;;4972785;28;20207;-54
2023/03/28 10:58:12;;;;;;;4.70;2.13;;;;;;;;;;4972656;28;20254;-53
2023/03/28 11:00:41;;;;;;;6.70;2.00;;;;;;;;;;4972522;28;20199;-54
2023/03/28 11:03:14;;;;;;;4.57;1.80;;;;;;;;;;4972514;28;20589;-53
2023/03/28 11:05:46;;;;;;;6.77;1.90;;;;;;;;;;4972821;28;20207;-54
2023/03/28 11:08:21;;;;;;;4.20;1.80;;;;;;;;;;4972641;28;20199;-54
2023/03/28 11:10:54;;;;;;;4.23;1.80;;;;;;;;;;4972628;28;20232;-54
2023/03/28 11:13:26;;;;;;;6.80;2.23;;;;;;;;;;4972627;28;20634;-55
2023/03/28 11:15:56;;;;;;;5.27;2.20;;;;;;;;;;4972392;28;20202;-53
2023/03/28 11:18:29;;;;;;;5.33;1.90;;;;;;;;;;4972517;28;20222;-54
2023/03/28 11:21:00;;;;;;;5.57;2.17;;;;;;;;;;4972661;28;20630;-53
2023/03/28 11:23:34;;;;;;;4.77;2.00;;;;;;;;;;4972621;28;20203;-54
2023/03/28 11:26:03;;;;;;;5.40;1.90;;;;;;;;;;4972701;28;20207;-54
2023/03/28 11:28:35;;;;;;;5.97;2.23;;;;;;;;;;4972757;28;20195;-54
2023/03/28 11:31:02;;;;;;;6.10;1.83;;;;;;;;;;4972338;28;20218;-55
2023/03/28 11:33:31;;;;;;;5.53;2.17;;;;;;;;;;4972422;28;20239;-53
2023/03/28 11:36:03;;;;;;;5.83;1.97;;;;;;;;;;4972424;28;20203;-53
2023/03/28 11:38:31;;;;;;;6.70;2.13;;;;;;;;;;4972452;28;20227;-53
2023/03/28 11:40:59;;;;;;;3.90;1.87;;;;;;;;;;4972294;28;20245;-54
2023/03/28 11:43:28;;;;;;;5.80;1.90;;;;;;;;;;4972504;28;20616;-53
2023/03/28 11:45:57;;;;;;;5.07;1.67;;;;;;;;;;4972234;28;20258;-53
2023/03/28 11:48:25;;;;;;;2.53;1.80;;;;;;;;;;4972231;28;20191;-54
2023/03/28 11:50:56;;;;;;;6.30;2.10;;;;;;;;;;4972312;28;20520;-53
2023/03/28 11:53:25;;;;;;;9.63;1.90;;;;;;;;;;4972311;28;20251;-55
2023/03/28 11:55:57;;;;;;;5.93;1.80;;;;;;;;;;4974964;28;20207;-53
2023/03/28 11:58:24;;;;;;;4.13;1.77;;;;;;;;;;4976049;28;20321;-53
2023/03/28 12:00:53;;;;;;;2.07;1.70;;;;;;;;;;4975985;28;20191;-53
2023/03/28 12:03:23;;;;;;;5.60;2.30;;;;;;;;;;4975851;28;20211;-53
2023/03/28 12:05:50;;;;;;;3.80;1.90;;;;;;;;;;4975764;28;20226;-54
2023/03/28 12:08:20;;;;;;;5.90;2.30;;;;;;;;;;4976090;28;20199;-53
2023/03/28 12:10:49;;;;;;;4.33;1.90;;;;;;;;;;4975805;28;20210;-57
2023/03/28 12:13:18;;;;;;;6.27;2.23;;;;;;;;;;4975637;28;20210;-54
2023/03/28 12:15:47;;;;;;;4.27;1.73;;;;;;;;;;4975833;28;20199;-55
2023/03/28 12:18:16;;;;;;;6.10;2.20;;;;;;;;;;4975534;28;20239;-53
2023/03/28 12:20:45;;;;;;;3.00;1.60;;;;;;;;;;4967140;28;20209;-52
2023/03/28 12:23:15;;;;;;;3.50;1.70;;;;;;;;;;4975386;28;20230;-52
2023/03/28 12:25:44;;;;;;;5.63;2.03;;;;;;;;;;4975398;28;20229;-54
2023/03/28 12:28:16;;;;;;;3.70;1.80;;;;;;;;;;4971656;28;20202;-53
2023/03/28 12:30:44;;;;;;;2.73;1.67;;;;;;;;;;4975508;28;20205;-53
2023/03/28 12:33:16;;;;;;;2.30;1.37;;;;;;;;;;4975126;28;20338;-53
2023/03/28 12:35:47;;;;;;;5.70;1.70;;;;;;;;;;4975425;28;20249;-52
2023/03/28 12:38:18;;;;;;;4.73;1.80;;;;;;;;;;4975303;28;20250;-52
2023/03/28 12:40:48;;;;;;;2.77;1.40;;;;;;;;;;4975378;28;20203;-53
2023/03/28 12:43:17;;;;;;;3.77;1.40;;;;;;;;;;4975542;28;20207;-51
2023/03/28 12:45:45;;;;;;;4.90;1.63;;;;;;;;;;4975124;28;20203;-54
2023/03/28 12:48:13;;;;;;;3.60;1.90;;;;;;;;;;4975183;28;20215;-53
2023/03/28 12:50:43;;;;;;;3.30;1.60;;;;;;;;;;4975076;28;20206;-55
2023/03/28 12:53:11;;;;;;;4.67;1.90;;;;;;;;;;4974845;28;20257;-53
2023/03/28 12:55:42;;;;;;;4.60;1.97;;;;;;;;;;4974803;28;20203;-50
2023/03/28 12:58:13;;;;;;;3.70;1.73;;;;;;;;;;4974669;28;20206;-55
2023/03/28 13:00:46;;;;;;;5.20;2.30;;;;;;;;;;4974776;28;20744;-54
2023/03/28 13:03:17;;;;;;;3.17;1.70;;;;;;;;;;4974995;28;20575;-53
2023/03/28 13:05:46;;;;;;;4.70;1.57;;;;;;;;;;4974400;28;20207;-56
2023/03/28 13:08:16;;;;;;;5.07;2.07;;;;;;;;;;4974911;28;20218;-54
2023/03/28 13:10:45;;;;;;;2.87;1.73;;;;;;;;;;4974631;28;20621;-53
2023/03/28 13:13:21;;;;;;;4.77;2.20;;;;;;;;;;4974495;28;20199;-54
2023/03/28 13:16:01;;;;;;;3.90;1.90;;;;;;;;;;4974650;28;20191;-51
2023/03/28 13:18:30;;;;;;;5.27;1.90;;;;;;;;;;4974481;28;20246;-52
2023/03/28 13:20:57;;;;;;;4.90;1.83;;;;;;;;;;4974659;28;20229;-54
2023/03/28 13:23:27;;;;;;;4.07;1.90;;;;;;;;;;4974479;28;20206;-55
2023/03/28 13:25:54;;;;;;;5.33;2.10;;;;;;;;;;4974403;28;20286;-54
2023/03/28 13:28:21;;;;;;;6.60;2.07;;;;;;;;;;4974421;28;20195;-54
2023/03/28 13:31:02;;;;;;;4.37;1.87;;;;;;;;;;4971597;28;20274;-56
2023/03/28 13:33:32;;;;;;;6.53;2.20;;;;;;;;;;4954351;28;20346;-57
2023/03/28 13:36:17;;;;;;;4.07;1.93;;;;;;;;;;4954975;29;20218;-56
2023/03/28 13:38:45;;;;;;;4.43;1.90;;;;;;;;;;4955239;29;20228;-56
2023/03/28 13:41:28;;;;;;;4.03;2.13;;;;;;;;;;4954399;29;20254;-55
2023/03/28 13:43:55;;;;;;;3.97;2.00;;;;;;;;;;4954202;29;20616;-55
2023/03/28 13:46:23;;;;;;;4.53;1.90;;;;;;;;;;4949048;29;20199;-55
2023/03/28 13:48:52;;;;;;;6.80;2.00;;;;;;;;;;4954354;29;20196;-54
2023/03/28 13:51:21;;;;;;;3.63;1.87;;;;;;;;;;4954320;29;20212;-55
2023/03/28 13:53:49;;;;;;;7.63;1.83;;;;;;;;;;4954392;28;20204;-54
2023/03/28 13:56:21;;;;;;;7.07;1.97;;;;;;;;;;4946130;28;20211;-55
2023/03/28 13:58:47;;;;;;;6.77;2.20;;;;;;;;;;4958110;28;20237;-55
2023/03/28 14:01:15;;;;;;;3.97;2.03;;;;;;;;;;4973382;28;20207;-55
2023/03/28 14:03:41;;;;;;;6.13;2.43;;;;;;;;;;4973590;28;20202;-53
2023/03/28 14:06:19;;;;;;;5.83;2.10;;;;;;;;;;4973194;28;20661;-53
2023/03/28 14:08:45;;;;;;;5.53;1.77;;;;;;;;;;4973606;28;20213;-54
2023/03/28 14:11:12;;;;;;;5.83;1.80;;;;;;;;;;4973433;28;20195;-54
2023/03/28 14:13:39;;;;;;;3.03;2.00;;;;;;;;;;4973440;28;20221;-54
2023/03/28 14:16:06;;;;;;;5.10;1.87;;;;;;;;;;4972946;28;20305;-54
2023/03/28 14:18:34;;;;;;;3.57;1.70;;;;;;;;;;4972518;28;20227;-56
2023/03/28 14:21:00;;;;;;;7.10;1.80;;;;;;;;;;4973293;28;20562;-54
2023/03/28 14:23:29;;;;;;;5.37;2.00;;;;;;;;;;4973152;28;20198;-54
2023/03/28 14:25:56;;;;;;;5.93;2.00;;;;;;;;;;4972919;28;20205;-54
2023/03/28 14:28:26;;;;;;;3.87;1.73;;;;;;;;;;4972989;28;20570;-54
2023/03/28 14:30:52;;;;;;;5.33;2.10;;;;;;;;;;4973089;28;20581;-55
2023/03/28 14:33:19;;;;;;;5.10;2.00;;;;;;;;;;4972684;28;20349;-55
2023/03/28 14:35:56;;;;;;;3.93;1.83;;;;;;;;;;4973062;28;20612;-54
2023/03/28 14:38:27;;;;;;;3.97;2.30;;;;;;;;;;4972728;28;20578;-54
2023/03/28 14:40:55;;;;;;;6.90;1.90;;;;;;;;;;4973056;28;20222;-54
2023/03/28 14:43:25;;;;;;;6.93;2.10;;;;;;;;;;4972706;28;20245;-54
2023/03/28 14:45:53;;;;;;;6.47;2.57;;;;;;;;;;4972874;28;20767;-55
2023/03/28 14:48:20;;;;;;;3.93;2.03;;;;;;;;;;4972751;28;20205;-53